sensor_id;sensor_type;location;lat;lon;timestamp;temperature;humidity
20504;DHT22;10410;51.046;6.980;2023-08-24T00:01:02;19.10;99.90
20504;DHT22;10410;51.046;6.980;2023-08-24T00:08:06;19.00;99.90
20504;DHT22;10410;51.046;6.980;2023-08-24T00:15:10;19.00;99.90
20504;DHT22;10410;51.046;6.980;2023-08-24T00:22:10;18.90;99.90
20504;DHT22;10410;51.046;6.980;2023-08-24T00:29:11;18.80;99.90
20504;DHT22;10410;51.046;6.980;2023-08-24T00:36:12;18.80;99.90
20504;DHT22;10410;51.046;6.980;2023-08-24T00:43:13;18.80;99.90
20504;DHT22;10410;51.046;6.980;2023-08-24T00:50:13;18.80;99.90
20504;DHT22;10410;51.046;6.980;2023-08-24T00:57:16;18.80;99.90
20504;DHT22;10410;51.046;6.980;2023-08-24T01:04:17;18.70;99.90
20504;DHT22;10410;51.046;6.980;2023-08-24T01:12:05;18.60;99.90
20504;DHT22;10410;51.046;6.980;2023-08-24T01:18:45;18.60;99.90
20504;DHT22;10410;51.046;6.980;2023-08-24T01:26:07;18.50;99.90
20504;DHT22;10410;51.046;6.980;2023-08-24T01:33:09;18.50;99.90
20504;DHT22;10410;51.046;6.980;2023-08-24T01:40:26;18.50;99.90
20504;DHT22;10410;51.046;6.980;2023-08-24T01:47:29;18.40;99.90
20504;DHT22;10410;51.046;6.980;2023-08-24T01:54:30;18.40;99.90
20504;DHT22;10410;51.046;6.980;2023-08-24T02:01:31;18.30;99.90
20504;DHT22;10410;51.046;6.980;2023-08-24T02:08:31;18.30;99.90
20504;DHT22;10410;51.046;6.980;2023-08-24T02:15:32;18.20;99.90
20504;DHT22;10410;51.046;6.980;2023-08-24T02:22:32;18.20;99.90
20504;DHT22;10410;51.046;6.980;2023-08-24T02:29:33;18.10;99.90
20504;DHT22;10410;51.046;6.980;2023-08-24T02:36:34;18.10;99.90
20504;DHT22;10410;51.046;6.980;2023-08-24T02:43:35;18.00;99.90
20504;DHT22;10410;51.046;6.980;2023-08-24T02:50:37;18.00;99.90
20504;DHT22;10410;51.046;6.980;2023-08-24T02:57:39;18.00;99.90
20504;DHT22;10410;51.046;6.980;2023-08-24T03:04:39;18.00;99.90
20504;DHT22;10410;51.046;6.980;2023-08-24T03:11:40;18.00;99.90
20504;DHT22;10410;51.046;6.980;2023-08-24T03:18:40;18.00;99.90
20504;DHT22;10410;51.046;6.980;2023-08-24T03:25:41;18.00;99.90
20504;DHT22;10410;51.046;6.980;2023-08-24T03:32:42;18.00;99.90
20504;DHT22;10410;51.046;6.980;2023-08-24T03:39:43;18.00;99.90
20504;DHT22;10410;51.046;6.980;2023-08-24T03:46:44;18.00;99.90
20504;DHT22;10410;51.046;6.980;2023-08-24T03:53:44;18.00;99.90
20504;DHT22;10410;51.046;6.980;2023-08-24T04:00:46;18.00;99.90
20504;DHT22;10410;51.046;6.980;2023-08-24T04:07:47;18.00;99.90
20504;DHT22;10410;51.046;6.980;2023-08-24T04:14:48;18.10;99.90
20504;DHT22;10410;51.046;6.980;2023-08-24T04:21:49;18.10;99.90
20504;DHT22;10410;51.046;6.980;2023-08-24T04:28:49;18.10;99.90
20504;DHT22;10410;51.046;6.980;2023-08-24T04:35:50;18.20;99.90
20504;DHT22;10410;51.046;6.980;2023-08-24T04:42:51;18.30;99.90
20504;DHT22;10410;51.046;6.980;2023-08-24T04:49:52;18.40;99.90
20504;DHT22;10410;51.046;6.980;2023-08-24T04:56:52;18.40;99.90
20504;DHT22;10410;51.046;6.980;2023-08-24T05:03:53;18.40;99.90
20504;DHT22;10410;51.046;6.980;2023-08-24T05:10:54;18.50;99.90
20504;DHT22;10410;51.046;6.980;2023-08-24T05:17:54;18.40;99.90
20504;DHT22;10410;51.046;6.980;2023-08-24T05:24:56;18.30;99.90
20504;DHT22;10410;51.046;6.980;2023-08-24T05:31:57;18.20;99.90
20504;DHT22;10410;51.046;6.980;2023-08-24T05:38:57;18.10;99.90
20504;DHT22;10410;51.046;6.980;2023-08-24T05:46:00;18.10;99.90
20504;DHT22;10410;51.046;6.980;2023-08-24T05:53:03;18.20;99.90
20504;DHT22;10410;51.046;6.980;2023-08-24T06:00:05;18.20;99.90
20504;DHT22;10410;51.046;6.980;2023-08-24T06:07:14;18.30;99.90
20504;DHT22;10410;51.046;6.980;2023-08-24T06:14:15;18.40;99.90
20504;DHT22;10410;51.046;6.980;2023-08-24T06:21:16;18.50;99.90
20504;DHT22;10410;51.046;6.980;2023-08-24T06:28:16;18.60;99.90
20504;DHT22;10410;51.046;6.980;2023-08-24T06:35:16;18.70;99.90
20504;DHT22;10410;51.046;6.980;2023-08-24T06:42:17;18.80;99.90
20504;DHT22;10410;51.046;6.980;2023-08-24T06:49:19;18.90;99.90
20504;DHT22;10410;51.046;6.980;2023-08-24T06:56:20;19.10;99.90
20504;DHT22;10410;51.046;6.980;2023-08-24T07:03:20;19.40;99.90
20504;DHT22;10410;51.046;6.980;2023-08-24T07:10:21;19.80;99.90
20504;DHT22;10410;51.046;6.980;2023-08-24T07:17:22;20.10;99.90
20504;DHT22;10410;51.046;6.980;2023-08-24T07:24:22;20.30;99.90
20504;DHT22;10410;51.046;6.980;2023-08-24T07:31:43;20.60;99.90
20504;DHT22;10410;51.046;6.980;2023-08-24T07:38:45;21.00;99.90
20504;DHT22;10410;51.046;6.980;2023-08-24T07:45:47;21.30;99.90
20504;DHT22;10410;51.046;6.980;2023-08-24T07:52:48;21.70;99.90
20504;DHT22;10410;51.046;6.980;2023-08-24T07:59:48;22.10;99.90
20504;DHT22;10410;51.046;6.980;2023-08-24T08:06:49;22.40;99.90
20504;DHT22;10410;51.046;6.980;2023-08-24T08:13:50;22.80;99.90
20504;DHT22;10410;51.046;6.980;2023-08-24T08:20:50;23.10;99.90
20504;DHT22;10410;51.046;6.980;2023-08-24T08:27:51;23.40;99.90
20504;DHT22;10410;51.046;6.980;2023-08-24T08:34:55;23.70;99.90
20504;DHT22;10410;51.046;6.980;2023-08-24T08:41:57;23.90;99.90
20504;DHT22;10410;51.046;6.980;2023-08-24T08:49:00;24.20;99.90
20504;DHT22;10410;51.046;6.980;2023-08-24T08:56:01;24.40;99.90
20504;DHT22;10410;51.046;6.980;2023-08-24T09:03:05;24.70;99.90
20504;DHT22;10410;51.046;6.980;2023-08-24T09:10:06;25.00;99.90
20504;DHT22;10410;51.046;6.980;2023-08-24T09:17:08;25.20;99.90
20504;DHT22;10410;51.046;6.980;2023-08-24T09:24:08;25.50;99.90
20504;DHT22;10410;51.046;6.980;2023-08-24T09:31:11;25.70;99.90
20504;DHT22;10410;51.046;6.980;2023-08-24T09:38:22;25.90;99.90
20504;DHT22;10410;51.046;6.980;2023-08-24T09:45:23;26.10;99.90
20504;DHT22;10410;51.046;6.980;2023-08-24T09:52:25;26.30;99.90
20504;DHT22;10410;51.046;6.980;2023-08-24T09:59:31;26.50;99.90
20504;DHT22;10410;51.046;6.980;2023-08-24T10:06:33;26.60;99.90
20504;DHT22;10410;51.046;6.980;2023-08-24T10:13:40;26.70;99.90
20504;DHT22;10410;51.046;6.980;2023-08-24T10:20:44;26.80;99.90
20504;DHT22;10410;51.046;6.980;2023-08-24T10:27:45;27.00;99.90
20504;DHT22;10410;51.046;6.980;2023-08-24T10:34:48;27.10;99.90
20504;DHT22;10410;51.046;6.980;2023-08-24T10:41:50;27.20;99.90
20504;DHT22;10410;51.046;6.980;2023-08-24T10:48:57;27.30;99.90
20504;DHT22;10410;51.046;6.980;2023-08-24T10:56:11;27.30;99.90
20504;DHT22;10410;51.046;6.980;2023-08-24T11:03:31;27.40;99.90
20504;DHT22;10410;51.046;6.980;2023-08-24T11:17:44;27.80;99.90
20504;DHT22;10410;51.046;6.980;2023-08-24T11:24:45;27.90;99.90
20504;DHT22;10410;51.046;6.980;2023-08-24T11:31:47;28.20;99.90
20504;DHT22;10410;51.046;6.980;2023-08-24T11:38:47;28.30;99.90
20504;DHT22;10410;51.046;6.980;2023-08-24T11:45:48;28.30;99.90
20504;DHT22;10410;51.046;6.980;2023-08-24T11:52:48;28.30;99.90
20504;DHT22;10410;51.046;6.980;2023-08-24T11:59:49;28.20;99.90
20504;DHT22;10410;51.046;6.980;2023-08-24T12:06:50;28.20;99.90
20504;DHT22;10410;51.046;6.980;2023-08-24T12:13:52;28.30;99.90
20504;DHT22;10410;51.046;6.980;2023-08-24T12:20:53;28.40;99.90
20504;DHT22;10410;51.046;6.980;2023-08-24T12:28:11;28.30;99.90
20504;DHT22;10410;51.046;6.980;2023-08-24T12:35:16;28.10;99.90
20504;DHT22;10410;51.046;6.980;2023-08-24T12:42:16;27.90;99.90
20504;DHT22;10410;51.046;6.980;2023-08-24T12:49:17;27.50;99.90
20504;DHT22;10410;51.046;6.980;2023-08-24T12:56:17;27.10;99.90
20504;DHT22;10410;51.046;6.980;2023-08-24T13:03:18;26.70;99.90
20504;DHT22;10410;51.046;6.980;2023-08-24T13:10:18;26.40;99.90
20504;DHT22;10410;51.046;6.980;2023-08-24T13:17:19;26.30;99.90
20504;DHT22;10410;51.046;6.980;2023-08-24T13:24:21;26.20;99.90
20504;DHT22;10410;51.046;6.980;2023-08-24T13:31:21;25.80;99.90
20504;DHT22;10410;51.046;6.980;2023-08-24T13:38:21;25.70;99.90
20504;DHT22;10410;51.046;6.980;2023-08-24T13:45:22;25.60;99.90
20504;DHT22;10410;51.046;6.980;2023-08-24T13:52:23;25.60;99.90
20504;DHT22;10410;51.046;6.980;2023-08-24T13:59:23;25.60;99.90
20504;DHT22;10410;51.046;6.980;2023-08-24T14:06:24;25.60;99.90
20504;DHT22;10410;51.046;6.980;2023-08-24T14:13:24;25.60;99.90
20504;DHT22;10410;51.046;6.980;2023-08-24T14:20:25;25.70;99.90
20504;DHT22;10410;51.046;6.980;2023-08-24T14:27:25;25.60;99.90
20504;DHT22;10410;51.046;6.980;2023-08-24T14:34:26;25.40;99.90
20504;DHT22;10410;51.046;6.980;2023-08-24T14:41:26;25.20;99.90
20504;DHT22;10410;51.046;6.980;2023-08-24T14:48:27;25.00;99.90
20504;DHT22;10410;51.046;6.980;2023-08-24T14:55:27;24.80;99.90
20504;DHT22;10410;51.046;6.980;2023-08-24T15:02:28;24.50;99.90
20504;DHT22;10410;51.046;6.980;2023-08-24T15:09:28;24.30;99.90
20504;DHT22;10410;51.046;6.980;2023-08-24T15:16:29;24.00;99.90
20504;DHT22;10410;51.046;6.980;2023-08-24T15:23:30;23.70;99.90
20504;DHT22;10410;51.046;6.980;2023-08-24T15:30:31;23.40;99.90
20504;DHT22;10410;51.046;6.980;2023-08-24T15:37:31;23.10;99.90
20504;DHT22;10410;51.046;6.980;2023-08-24T15:44:32;22.80;99.90
20504;DHT22;10410;51.046;6.980;2023-08-24T15:51:33;22.60;99.90
20504;DHT22;10410;51.046;6.980;2023-08-24T15:58:33;22.40;99.90
20504;DHT22;10410;51.046;6.980;2023-08-24T16:05:34;22.30;99.90
20504;DHT22;10410;51.046;6.980;2023-08-24T16:12:34;22.20;99.90
20504;DHT22;10410;51.046;6.980;2023-08-24T16:19:35;22.10;99.90
20504;DHT22;10410;51.046;6.980;2023-08-24T16:26:35;22.00;99.90
20504;DHT22;10410;51.046;6.980;2023-08-24T16:33:36;22.00;99.90
20504;DHT22;10410;51.046;6.980;2023-08-24T16:40:36;21.90;99.90
20504;DHT22;10410;51.046;6.980;2023-08-24T16:47:37;22.00;99.90
20504;DHT22;10410;51.046;6.980;2023-08-24T16:54:37;22.00;99.90
20504;DHT22;10410;51.046;6.980;2023-08-24T17:01:38;22.10;99.90
20504;DHT22;10410;51.046;6.980;2023-08-24T17:08:39;22.10;99.90
20504;DHT22;10410;51.046;6.980;2023-08-24T17:15:39;22.00;99.90
20504;DHT22;10410;51.046;6.980;2023-08-24T17:22:40;21.90;99.90
20504;DHT22;10410;51.046;6.980;2023-08-24T17:29:40;22.00;99.90
20504;DHT22;10410;51.046;6.980;2023-08-24T17:36:41;21.90;99.90
20504;DHT22;10410;51.046;6.980;2023-08-24T17:43:41;21.90;99.90
20504;DHT22;10410;51.046;6.980;2023-08-24T17:50:42;21.80;99.90
20504;DHT22;10410;51.046;6.980;2023-08-24T17:57:50;21.80;99.90
20504;DHT22;10410;51.046;6.980;2023-08-24T18:04:51;21.70;99.90
20504;DHT22;10410;51.046;6.980;2023-08-24T18:11:51;21.70;99.90
20504;DHT22;10410;51.046;6.980;2023-08-24T18:18:52;21.70;99.90
20504;DHT22;10410;51.046;6.980;2023-08-24T18:25:52;21.70;99.90
20504;DHT22;10410;51.046;6.980;2023-08-24T18:32:53;21.60;99.90
20504;DHT22;10410;51.046;6.980;2023-08-24T18:39:54;21.60;99.90
20504;DHT22;10410;51.046;6.980;2023-08-24T18:46:54;21.60;99.90
20504;DHT22;10410;51.046;6.980;2023-08-24T18:53:55;21.50;99.90
20504;DHT22;10410;51.046;6.980;2023-08-24T19:01:00;21.40;99.90
20504;DHT22;10410;51.046;6.980;2023-08-24T19:08:01;21.40;99.90
20504;DHT22;10410;51.046;6.980;2023-08-24T19:15:01;21.30;99.90
20504;DHT22;10410;51.046;6.980;2023-08-24T19:22:02;21.20;99.90
20504;DHT22;10410;51.046;6.980;2023-08-24T19:29:02;21.20;99.90
20504;DHT22;10410;51.046;6.980;2023-08-24T19:36:07;21.10;99.90
20504;DHT22;10410;51.046;6.980;2023-08-24T19:43:07;21.10;99.90
20504;DHT22;10410;51.046;6.980;2023-08-24T19:50:08;20.90;99.90
20504;DHT22;10410;51.046;6.980;2023-08-24T19:57:09;20.90;99.90
20504;DHT22;10410;51.046;6.980;2023-08-24T20:04:11;20.80;99.90
20504;DHT22;10410;51.046;6.980;2023-08-24T20:11:11;20.70;99.90
20504;DHT22;10410;51.046;6.980;2023-08-24T20:18:12;20.40;99.90
20504;DHT22;10410;51.046;6.980;2023-08-24T20:25:13;20.30;99.90
20504;DHT22;10410;51.046;6.980;2023-08-24T20:32:15;20.30;99.90
20504;DHT22;10410;51.046;6.980;2023-08-24T20:39:15;20.20;99.90
20504;DHT22;10410;51.046;6.980;2023-08-24T20:46:16;20.20;99.90
20504;DHT22;10410;51.046;6.980;2023-08-24T20:53:16;20.20;99.90
20504;DHT22;10410;51.046;6.980;2023-08-24T21:00:18;20.10;99.90
20504;DHT22;10410;51.046;6.980;2023-08-24T21:07:18;20.10;99.90
20504;DHT22;10410;51.046;6.980;2023-08-24T21:14:20;20.10;99.90
20504;DHT22;10410;51.046;6.980;2023-08-24T21:21:20;20.00;99.90
20504;DHT22;10410;51.046;6.980;2023-08-24T21:28:21;20.00;99.90
20504;DHT22;10410;51.046;6.980;2023-08-24T21:35:21;19.90;99.90
20504;DHT22;10410;51.046;6.980;2023-08-24T21:42:22;19.90;99.90
20504;DHT22;10410;51.046;6.980;2023-08-24T21:49:23;19.80;99.90
20504;DHT22;10410;51.046;6.980;2023-08-24T21:56:23;19.70;99.90
20504;DHT22;10410;51.046;6.980;2023-08-24T22:03:24;19.50;99.90
20504;DHT22;10410;51.046;6.980;2023-08-24T22:10:24;19.50;99.90
20504;DHT22;10410;51.046;6.980;2023-08-24T22:17:25;19.40;99.90
20504;DHT22;10410;51.046;6.980;2023-08-24T22:24:25;19.40;99.90
20504;DHT22;10410;51.046;6.980;2023-08-24T22:31:26;19.40;99.90
20504;DHT22;10410;51.046;6.980;2023-08-24T22:38:26;19.40;99.90
20504;DHT22;10410;51.046;6.980;2023-08-24T22:45:38;19.40;99.90
20504;DHT22;10410;51.046;6.980;2023-08-24T22:52:40;19.40;99.90
20504;DHT22;10410;51.046;6.980;2023-08-24T22:59:43;19.50;99.90
20504;DHT22;10410;51.046;6.980;2023-08-24T23:13:57;19.50;99.90
20504;DHT22;10410;51.046;6.980;2023-08-24T23:20:57;19.50;99.90
20504;DHT22;10410;51.046;6.980;2023-08-24T23:27:58;19.50;99.90
20504;DHT22;10410;51.046;6.980;2023-08-24T23:34:58;19.40;99.90
20504;DHT22;10410;51.046;6.980;2023-08-24T23:41:58;19.40;99.90
20504;DHT22;10410;51.046;6.980;2023-08-24T23:48:59;19.30;99.90
20504;DHT22;10410;51.046;6.980;2023-08-24T23:56:00;19.20;99.90
